sensor_id;sensor_type;location;lat;lon;timestamp;temperature;humidity
23147;DHT22;11742;53.532;-1.478;2023-01-09T00:00:19;9.60;90.20
23147;DHT22;11742;53.532;-1.478;2023-01-09T00:02:45;9.70;90.30
23147;DHT22;11742;53.532;-1.478;2023-01-09T00:05:12;9.60;90.30
23147;DHT22;11742;53.532;-1.478;2023-01-09T00:07:39;9.70;90.30
23147;DHT22;11742;53.532;-1.478;2023-01-09T00:10:05;9.60;90.30
23147;DHT22;11742;53.532;-1.478;2023-01-09T00:12:32;9.60;90.30
23147;DHT22;11742;53.532;-1.478;2023-01-09T00:14:58;9.60;90.30
23147;DHT22;11742;53.532;-1.478;2023-01-09T00:17:24;9.60;90.30
23147;DHT22;11742;53.532;-1.478;2023-01-09T00:19:50;9.60;90.30
23147;DHT22;11742;53.532;-1.478;2023-01-09T00:22:15;9.60;90.30
23147;DHT22;11742;53.532;-1.478;2023-01-09T00:24:41;9.60;90.30
23147;DHT22;11742;53.532;-1.478;2023-01-09T00:27:07;9.60;90.30
23147;DHT22;11742;53.532;-1.478;2023-01-09T00:29:32;9.60;90.40
23147;DHT22;11742;53.532;-1.478;2023-01-09T00:31:58;9.60;90.40
23147;DHT22;11742;53.532;-1.478;2023-01-09T00:34:24;9.60;90.30
23147;DHT22;11742;53.532;-1.478;2023-01-09T00:36:50;9.60;90.40
23147;DHT22;11742;53.532;-1.478;2023-01-09T00:39:23;9.60;90.40
23147;DHT22;11742;53.532;-1.478;2023-01-09T00:41:51;9.60;90.30
23147;DHT22;11742;53.532;-1.478;2023-01-09T00:44:39;9.60;90.40
23147;DHT22;11742;53.532;-1.478;2023-01-09T00:47:40;9.60;90.40
23147;DHT22;11742;53.532;-1.478;2023-01-09T00:50:12;9.60;90.40
23147;DHT22;11742;53.532;-1.478;2023-01-09T00:52:39;9.50;90.30
23147;DHT22;11742;53.532;-1.478;2023-01-09T00:55:06;9.60;90.70
23147;DHT22;11742;53.532;-1.478;2023-01-09T00:57:32;9.60;90.40
23147;DHT22;11742;53.532;-1.478;2023-01-09T00:59:58;9.60;90.40
23147;DHT22;11742;53.532;-1.478;2023-01-09T01:02:24;9.60;90.40
23147;DHT22;11742;53.532;-1.478;2023-01-09T01:04:50;9.60;90.40
23147;DHT22;11742;53.532;-1.478;2023-01-09T01:07:34;9.60;90.40
23147;DHT22;11742;53.532;-1.478;2023-01-09T01:10:13;9.60;90.40
23147;DHT22;11742;53.532;-1.478;2023-01-09T01:12:41;9.60;90.50
23147;DHT22;11742;53.532;-1.478;2023-01-09T01:15:08;9.60;90.50
23147;DHT22;11742;53.532;-1.478;2023-01-09T01:17:36;9.60;90.50
23147;DHT22;11742;53.532;-1.478;2023-01-09T01:20:04;9.50;90.50
23147;DHT22;11742;53.532;-1.478;2023-01-09T01:22:30;9.50;90.50
23147;DHT22;11742;53.532;-1.478;2023-01-09T01:24:55;9.50;90.50
23147;DHT22;11742;53.532;-1.478;2023-01-09T01:27:21;9.50;90.50
23147;DHT22;11742;53.532;-1.478;2023-01-09T01:29:47;9.50;90.50
23147;DHT22;11742;53.532;-1.478;2023-01-09T01:32:12;9.50;90.50
23147;DHT22;11742;53.532;-1.478;2023-01-09T01:34:38;9.50;90.50
23147;DHT22;11742;53.532;-1.478;2023-01-09T01:37:04;9.50;90.50
23147;DHT22;11742;53.532;-1.478;2023-01-09T01:39:30;9.60;90.60
23147;DHT22;11742;53.532;-1.478;2023-01-09T01:41:56;9.50;90.60
23147;DHT22;11742;53.532;-1.478;2023-01-09T01:44:55;9.50;90.60
23147;DHT22;11742;53.532;-1.478;2023-01-09T01:47:24;9.50;90.70
23147;DHT22;11742;53.532;-1.478;2023-01-09T01:49:52;9.50;90.70
23147;DHT22;11742;53.532;-1.478;2023-01-09T01:52:18;9.50;90.80
23147;DHT22;11742;53.532;-1.478;2023-01-09T01:54:45;9.50;90.80
23147;DHT22;11742;53.532;-1.478;2023-01-09T01:57:11;9.50;90.80
23147;DHT22;11742;53.532;-1.478;2023-01-09T01:59:43;9.50;90.90
23147;DHT22;11742;53.532;-1.478;2023-01-09T02:02:19;9.50;90.90
23147;DHT22;11742;53.532;-1.478;2023-01-09T02:04:47;9.50;90.90
23147;DHT22;11742;53.532;-1.478;2023-01-09T02:07:15;9.50;90.90
23147;DHT22;11742;53.532;-1.478;2023-01-09T02:09:41;9.50;90.90
23147;DHT22;11742;53.532;-1.478;2023-01-09T02:12:21;9.50;91.00
23147;DHT22;11742;53.532;-1.478;2023-01-09T02:15:07;9.50;91.00
23147;DHT22;11742;53.532;-1.478;2023-01-09T02:21:26;9.50;91.00
23147;DHT22;11742;53.532;-1.478;2023-01-09T02:31:44;9.50;91.10
23147;DHT22;11742;53.532;-1.478;2023-01-09T02:34:23;9.50;91.20
23147;DHT22;11742;53.532;-1.478;2023-01-09T02:37:12;9.50;91.20
23147;DHT22;11742;53.532;-1.478;2023-01-09T02:39:50;9.60;91.20
23147;DHT22;11742;53.532;-1.478;2023-01-09T02:42:22;9.60;91.20
23147;DHT22;11742;53.532;-1.478;2023-01-09T02:44:48;9.60;91.20
23147;DHT22;11742;53.532;-1.478;2023-01-09T02:49:58;9.60;91.20
23147;DHT22;11742;53.532;-1.478;2023-01-09T03:08:44;9.60;91.30
23147;DHT22;11742;53.532;-1.478;2023-01-09T03:11:12;9.60;91.30
23147;DHT22;11742;53.532;-1.478;2023-01-09T03:13:46;9.60;91.30
23147;DHT22;11742;53.532;-1.478;2023-01-09T03:16:19;9.60;91.30
23147;DHT22;11742;53.532;-1.478;2023-01-09T03:18:46;9.60;91.30
23147;DHT22;11742;53.532;-1.478;2023-01-09T03:21:13;9.60;91.40
23147;DHT22;11742;53.532;-1.478;2023-01-09T03:23:46;9.60;91.40
23147;DHT22;11742;53.532;-1.478;2023-01-09T03:26:12;9.60;91.30
23147;DHT22;11742;53.532;-1.478;2023-01-09T03:28:38;9.60;91.30
23147;DHT22;11742;53.532;-1.478;2023-01-09T03:31:04;9.60;91.30
23147;DHT22;11742;53.532;-1.478;2023-01-09T03:33:29;9.60;91.30
23147;DHT22;11742;53.532;-1.478;2023-01-09T03:35:55;9.60;91.30
23147;DHT22;11742;53.532;-1.478;2023-01-09T03:38:20;9.60;91.30
23147;DHT22;11742;53.532;-1.478;2023-01-09T03:40:46;9.60;91.30
23147;DHT22;11742;53.532;-1.478;2023-01-09T03:43:12;9.60;91.30
23147;DHT22;11742;53.532;-1.478;2023-01-09T03:45:37;9.60;91.30
23147;DHT22;11742;53.532;-1.478;2023-01-09T03:48:03;9.60;91.30
23147;DHT22;11742;53.532;-1.478;2023-01-09T03:50:29;9.60;91.30
23147;DHT22;11742;53.532;-1.478;2023-01-09T03:52:54;9.70;91.40
23147;DHT22;11742;53.532;-1.478;2023-01-09T03:55:20;9.60;91.30
23147;DHT22;11742;53.532;-1.478;2023-01-09T03:57:46;9.60;91.40
23147;DHT22;11742;53.532;-1.478;2023-01-09T04:00:12;9.60;91.40
23147;DHT22;11742;53.532;-1.478;2023-01-09T04:02:38;9.60;91.40
23147;DHT22;11742;53.532;-1.478;2023-01-09T04:05:04;9.60;91.40
23147;DHT22;11742;53.532;-1.478;2023-01-09T04:07:30;9.70;91.50
23147;DHT22;11742;53.532;-1.478;2023-01-09T04:09:55;9.60;91.50
23147;DHT22;11742;53.532;-1.478;2023-01-09T04:12:21;9.70;91.50
23147;DHT22;11742;53.532;-1.478;2023-01-09T04:14:46;9.60;91.50
23147;DHT22;11742;53.532;-1.478;2023-01-09T04:17:12;9.70;91.50
23147;DHT22;11742;53.532;-1.478;2023-01-09T04:19:38;9.60;91.50
23147;DHT22;11742;53.532;-1.478;2023-01-09T04:22:03;9.70;91.50
23147;DHT22;11742;53.532;-1.478;2023-01-09T04:24:29;9.70;91.50
23147;DHT22;11742;53.532;-1.478;2023-01-09T04:26:56;9.70;91.50
23147;DHT22;11742;53.532;-1.478;2023-01-09T04:29:22;9.70;91.50
23147;DHT22;11742;53.532;-1.478;2023-01-09T04:31:47;9.70;91.50
23147;DHT22;11742;53.532;-1.478;2023-01-09T04:34:13;9.70;91.50
23147;DHT22;11742;53.532;-1.478;2023-01-09T04:36:39;9.70;91.50
23147;DHT22;11742;53.532;-1.478;2023-01-09T04:39:04;9.70;91.50
23147;DHT22;11742;53.532;-1.478;2023-01-09T04:41:30;9.70;91.50
23147;DHT22;11742;53.532;-1.478;2023-01-09T04:44:18;9.70;91.80
23147;DHT22;11742;53.532;-1.478;2023-01-09T04:46:44;9.70;91.50
23147;DHT22;11742;53.532;-1.478;2023-01-09T04:49:10;9.70;91.50
23147;DHT22;11742;53.532;-1.478;2023-01-09T04:51:36;9.70;91.50
23147;DHT22;11742;53.532;-1.478;2023-01-09T04:54:02;9.70;91.50
23147;DHT22;11742;53.532;-1.478;2023-01-09T04:56:27;9.70;91.40
23147;DHT22;11742;53.532;-1.478;2023-01-09T04:58:53;9.70;91.40
23147;DHT22;11742;53.532;-1.478;2023-01-09T05:01:19;9.70;91.40
23147;DHT22;11742;53.532;-1.478;2023-01-09T05:03:44;9.70;91.40
23147;DHT22;11742;53.532;-1.478;2023-01-09T05:06:10;9.70;91.40
23147;DHT22;11742;53.532;-1.478;2023-01-09T05:08:36;9.70;91.40
23147;DHT22;11742;53.532;-1.478;2023-01-09T05:11:01;9.70;91.40
23147;DHT22;11742;53.532;-1.478;2023-01-09T05:13:27;9.70;91.40
23147;DHT22;11742;53.532;-1.478;2023-01-09T05:15:53;9.70;91.50
23147;DHT22;11742;53.532;-1.478;2023-01-09T05:18:19;9.70;91.50
23147;DHT22;11742;53.532;-1.478;2023-01-09T05:20:44;9.70;91.50
23147;DHT22;11742;53.532;-1.478;2023-01-09T05:23:10;9.70;91.50
23147;DHT22;11742;53.532;-1.478;2023-01-09T05:25:36;9.70;91.50
23147;DHT22;11742;53.532;-1.478;2023-01-09T05:28:01;9.70;91.50
23147;DHT22;11742;53.532;-1.478;2023-01-09T05:30:27;9.70;91.50
23147;DHT22;11742;53.532;-1.478;2023-01-09T05:32:53;9.70;91.40
23147;DHT22;11742;53.532;-1.478;2023-01-09T05:35:19;9.70;91.40
23147;DHT22;11742;53.532;-1.478;2023-01-09T05:37:45;9.70;91.40
23147;DHT22;11742;53.532;-1.478;2023-01-09T05:40:11;9.70;91.40
23147;DHT22;11742;53.532;-1.478;2023-01-09T05:42:37;9.70;91.40
23147;DHT22;11742;53.532;-1.478;2023-01-09T05:45:03;9.70;91.30
23147;DHT22;11742;53.532;-1.478;2023-01-09T05:47:29;9.70;91.30
23147;DHT22;11742;53.532;-1.478;2023-01-09T05:49:55;9.70;91.30
23147;DHT22;11742;53.532;-1.478;2023-01-09T05:52:22;9.70;91.30
23147;DHT22;11742;53.532;-1.478;2023-01-09T05:54:47;9.70;91.30
23147;DHT22;11742;53.532;-1.478;2023-01-09T05:57:13;9.70;91.30
23147;DHT22;11742;53.532;-1.478;2023-01-09T05:59:39;9.70;91.30
23147;DHT22;11742;53.532;-1.478;2023-01-09T06:02:04;9.60;91.20
23147;DHT22;11742;53.532;-1.478;2023-01-09T06:04:30;9.60;91.20
23147;DHT22;11742;53.532;-1.478;2023-01-09T06:06:56;9.70;91.20
23147;DHT22;11742;53.532;-1.478;2023-01-09T06:09:21;9.70;91.20
23147;DHT22;11742;53.532;-1.478;2023-01-09T06:11:47;9.70;91.20
23147;DHT22;11742;53.532;-1.478;2023-01-09T06:14:13;9.70;91.20
23147;DHT22;11742;53.532;-1.478;2023-01-09T06:16:38;9.70;91.20
23147;DHT22;11742;53.532;-1.478;2023-01-09T06:19:04;9.60;91.10
23147;DHT22;11742;53.532;-1.478;2023-01-09T06:21:31;9.60;91.10
23147;DHT22;11742;53.532;-1.478;2023-01-09T06:23:57;9.70;91.10
23147;DHT22;11742;53.532;-1.478;2023-01-09T06:26:23;9.70;91.10
23147;DHT22;11742;53.532;-1.478;2023-01-09T06:28:49;9.70;91.10
23147;DHT22;11742;53.532;-1.478;2023-01-09T06:31:15;9.70;91.10
23147;DHT22;11742;53.532;-1.478;2023-01-09T06:33:41;9.60;91.10
23147;DHT22;11742;53.532;-1.478;2023-01-09T06:36:07;9.60;91.10
23147;DHT22;11742;53.532;-1.478;2023-01-09T06:38:32;9.60;91.10
23147;DHT22;11742;53.532;-1.478;2023-01-09T06:40:58;9.60;91.00
23147;DHT22;11742;53.532;-1.478;2023-01-09T06:43:23;9.60;91.40
23147;DHT22;11742;53.532;-1.478;2023-01-09T06:45:49;9.60;91.00
23147;DHT22;11742;53.532;-1.478;2023-01-09T06:48:15;9.60;91.00
23147;DHT22;11742;53.532;-1.478;2023-01-09T06:50:40;9.60;91.40
23147;DHT22;11742;53.532;-1.478;2023-01-09T06:53:06;9.60;91.10
23147;DHT22;11742;53.532;-1.478;2023-01-09T06:55:32;9.60;91.10
23147;DHT22;11742;53.532;-1.478;2023-01-09T06:57:58;9.60;91.10
23147;DHT22;11742;53.532;-1.478;2023-01-09T07:00:23;9.60;91.20
23147;DHT22;11742;53.532;-1.478;2023-01-09T07:02:49;9.60;91.20
23147;DHT22;11742;53.532;-1.478;2023-01-09T07:05:15;9.60;91.20
23147;DHT22;11742;53.532;-1.478;2023-01-09T07:07:41;9.60;91.20
23147;DHT22;11742;53.532;-1.478;2023-01-09T07:10:08;9.60;91.20
23147;DHT22;11742;53.532;-1.478;2023-01-09T07:12:34;9.60;91.30
23147;DHT22;11742;53.532;-1.478;2023-01-09T07:14:59;9.60;91.20
23147;DHT22;11742;53.532;-1.478;2023-01-09T07:17:25;9.60;91.20
23147;DHT22;11742;53.532;-1.478;2023-01-09T07:19:51;9.60;91.20
23147;DHT22;11742;53.532;-1.478;2023-01-09T07:22:17;9.60;91.20
23147;DHT22;11742;53.532;-1.478;2023-01-09T07:24:43;9.60;91.20
23147;DHT22;11742;53.532;-1.478;2023-01-09T07:27:09;9.60;91.20
23147;DHT22;11742;53.532;-1.478;2023-01-09T07:29:35;9.60;91.20
23147;DHT22;11742;53.532;-1.478;2023-01-09T07:32:01;9.60;91.10
23147;DHT22;11742;53.532;-1.478;2023-01-09T07:34:27;9.60;91.20
23147;DHT22;11742;53.532;-1.478;2023-01-09T07:36:53;9.60;91.10
23147;DHT22;11742;53.532;-1.478;2023-01-09T07:39:18;9.60;91.10
23147;DHT22;11742;53.532;-1.478;2023-01-09T07:41:45;9.60;91.10
23147;DHT22;11742;53.532;-1.478;2023-01-09T07:44:11;9.60;91.20
23147;DHT22;11742;53.532;-1.478;2023-01-09T07:46:37;9.60;91.20
23147;DHT22;11742;53.532;-1.478;2023-01-09T07:49:02;9.60;91.20
23147;DHT22;11742;53.532;-1.478;2023-01-09T07:51:28;9.60;91.20
23147;DHT22;11742;53.532;-1.478;2023-01-09T07:53:54;9.60;91.20
23147;DHT22;11742;53.532;-1.478;2023-01-09T07:56:19;9.60;91.30
23147;DHT22;11742;53.532;-1.478;2023-01-09T07:58:45;9.60;91.30
23147;DHT22;11742;53.532;-1.478;2023-01-09T08:01:10;9.60;91.30
23147;DHT22;11742;53.532;-1.478;2023-01-09T08:03:36;9.60;91.30
23147;DHT22;11742;53.532;-1.478;2023-01-09T08:06:03;9.60;91.30
23147;DHT22;11742;53.532;-1.478;2023-01-09T08:08:29;9.60;91.30
23147;DHT22;11742;53.532;-1.478;2023-01-09T08:10:54;9.60;91.40
23147;DHT22;11742;53.532;-1.478;2023-01-09T08:13:20;9.50;91.40
23147;DHT22;11742;53.532;-1.478;2023-01-09T08:15:46;9.60;91.40
23147;DHT22;11742;53.532;-1.478;2023-01-09T08:18:12;9.60;91.40
23147;DHT22;11742;53.532;-1.478;2023-01-09T08:20:38;9.60;91.50
23147;DHT22;11742;53.532;-1.478;2023-01-09T08:23:03;9.50;91.50
23147;DHT22;11742;53.532;-1.478;2023-01-09T08:25:29;9.60;91.50
23147;DHT22;11742;53.532;-1.478;2023-01-09T08:27:55;9.60;91.40
23147;DHT22;11742;53.532;-1.478;2023-01-09T08:30:20;9.60;91.40
23147;DHT22;11742;53.532;-1.478;2023-01-09T08:32:51;9.60;91.40
23147;DHT22;11742;53.532;-1.478;2023-01-09T08:35:18;9.60;91.40
23147;DHT22;11742;53.532;-1.478;2023-01-09T08:37:47;9.60;91.40
23147;DHT22;11742;53.532;-1.478;2023-01-09T08:40:14;9.60;91.40
23147;DHT22;11742;53.532;-1.478;2023-01-09T08:42:41;9.60;91.40
23147;DHT22;11742;53.532;-1.478;2023-01-09T08:45:26;9.60;91.30
23147;DHT22;11742;53.532;-1.478;2023-01-09T08:48:10;9.60;91.40
23147;DHT22;11742;53.532;-1.478;2023-01-09T08:50:36;9.60;91.40
23147;DHT22;11742;53.532;-1.478;2023-01-09T08:53:02;9.60;91.40
23147;DHT22;11742;53.532;-1.478;2023-01-09T08:55:28;9.60;91.50
23147;DHT22;11742;53.532;-1.478;2023-01-09T08:57:54;9.60;91.50
23147;DHT22;11742;53.532;-1.478;2023-01-09T09:00:22;9.60;91.60
23147;DHT22;11742;53.532;-1.478;2023-01-09T09:02:52;9.60;91.60
23147;DHT22;11742;53.532;-1.478;2023-01-09T09:05:18;9.60;91.60
23147;DHT22;11742;53.532;-1.478;2023-01-09T09:07:49;9.60;91.60
23147;DHT22;11742;53.532;-1.478;2023-01-09T09:10:16;9.60;91.60
23147;DHT22;11742;53.532;-1.478;2023-01-09T09:12:43;9.60;91.60
23147;DHT22;11742;53.532;-1.478;2023-01-09T09:15:10;9.60;91.60
23147;DHT22;11742;53.532;-1.478;2023-01-09T09:17:41;9.70;91.70
23147;DHT22;11742;53.532;-1.478;2023-01-09T09:20:08;9.60;91.60
23147;DHT22;11742;53.532;-1.478;2023-01-09T09:22:35;9.70;91.70
23147;DHT22;11742;53.532;-1.478;2023-01-09T09:25:01;9.60;91.60
23147;DHT22;11742;53.532;-1.478;2023-01-09T09:27:29;9.60;91.70
23147;DHT22;11742;53.532;-1.478;2023-01-09T09:29:55;9.70;91.70
23147;DHT22;11742;53.532;-1.478;2023-01-09T09:32:20;9.70;91.70
23147;DHT22;11742;53.532;-1.478;2023-01-09T09:34:46;9.70;91.70
23147;DHT22;11742;53.532;-1.478;2023-01-09T09:37:12;9.70;91.70
23147;DHT22;11742;53.532;-1.478;2023-01-09T09:39:37;9.70;91.70
23147;DHT22;11742;53.532;-1.478;2023-01-09T09:42:27;9.70;91.80
23147;DHT22;11742;53.532;-1.478;2023-01-09T09:45:45;9.70;91.80
23147;DHT22;11742;53.532;-1.478;2023-01-09T09:49:29;9.70;91.80
23147;DHT22;11742;53.532;-1.478;2023-01-09T09:51:46;9.70;91.80
23147;DHT22;11742;53.532;-1.478;2023-01-09T09:54:44;9.70;91.90
23147;DHT22;11742;53.532;-1.478;2023-01-09T09:57:16;9.70;91.90
23147;DHT22;11742;53.532;-1.478;2023-01-09T09:59:42;9.70;92.10
23147;DHT22;11742;53.532;-1.478;2023-01-09T10:04:37;9.80;92.80
23147;DHT22;11742;53.532;-1.478;2023-01-09T10:07:07;9.70;93.00
23147;DHT22;11742;53.532;-1.478;2023-01-09T10:09:44;9.80;93.10
23147;DHT22;11742;53.532;-1.478;2023-01-09T10:15:17;9.90;92.80
23147;DHT22;11742;53.532;-1.478;2023-01-09T10:18:05;9.90;92.90
23147;DHT22;11742;53.532;-1.478;2023-01-09T10:20:48;9.90;92.90
23147;DHT22;11742;53.532;-1.478;2023-01-09T10:23:45;10.00;92.60
23147;DHT22;11742;53.532;-1.478;2023-01-09T10:26:31;10.10;93.00
23147;DHT22;11742;53.532;-1.478;2023-01-09T10:30:06;10.10;93.00
23147;DHT22;11742;53.532;-1.478;2023-01-09T10:32:25;10.20;93.00
23147;DHT22;11742;53.532;-1.478;2023-01-09T10:37:43;10.30;92.60
23147;DHT22;11742;53.532;-1.478;2023-01-09T10:40:17;10.30;92.50
23147;DHT22;11742;53.532;-1.478;2023-01-09T10:42:48;10.30;92.40
23147;DHT22;11742;53.532;-1.478;2023-01-09T10:48:05;10.40;92.10
23147;DHT22;11742;53.532;-1.478;2023-01-09T10:50:39;10.40;92.00
23147;DHT22;11742;53.532;-1.478;2023-01-09T10:53:19;10.40;92.00
23147;DHT22;11742;53.532;-1.478;2023-01-09T10:55:46;10.40;92.00
23147;DHT22;11742;53.532;-1.478;2023-01-09T10:58:16;10.40;92.00
23147;DHT22;11742;53.532;-1.478;2023-01-09T11:00:42;10.40;91.90
23147;DHT22;11742;53.532;-1.478;2023-01-09T11:03:12;10.40;91.80
23147;DHT22;11742;53.532;-1.478;2023-01-09T11:05:38;10.40;91.70
23147;DHT22;11742;53.532;-1.478;2023-01-09T11:10:49;10.40;91.70
23147;DHT22;11742;53.532;-1.478;2023-01-09T11:13:24;10.40;91.70
23147;DHT22;11742;53.532;-1.478;2023-01-09T11:18:40;10.40;91.70
23147;DHT22;11742;53.532;-1.478;2023-01-09T11:26:50;10.40;91.60
23147;DHT22;11742;53.532;-1.478;2023-01-09T11:29:18;10.40;91.70
23147;DHT22;11742;53.532;-1.478;2023-01-09T11:31:55;10.40;91.60
23147;DHT22;11742;53.532;-1.478;2023-01-09T11:34:33;10.40;92.10
23147;DHT22;11742;53.532;-1.478;2023-01-09T11:37:05;10.40;91.80
23147;DHT22;11742;53.532;-1.478;2023-01-09T11:39:33;10.40;92.10
23147;DHT22;11742;53.532;-1.478;2023-01-09T11:42:05;10.40;92.40
23147;DHT22;11742;53.532;-1.478;2023-01-09T11:44:31;10.40;92.50
23147;DHT22;11742;53.532;-1.478;2023-01-09T11:46:57;10.50;92.70
23147;DHT22;11742;53.532;-1.478;2023-01-09T11:49:26;10.50;93.00
23147;DHT22;11742;53.532;-1.478;2023-01-09T11:54:31;10.50;93.00
23147;DHT22;11742;53.532;-1.478;2023-01-09T11:56:59;10.60;93.00
23147;DHT22;11742;53.532;-1.478;2023-01-09T11:59:27;10.60;93.00
23147;DHT22;11742;53.532;-1.478;2023-01-09T12:07:56;10.70;92.60
23147;DHT22;11742;53.532;-1.478;2023-01-09T12:13:36;10.80;92.70
23147;DHT22;11742;53.532;-1.478;2023-01-09T12:16:40;10.80;93.10
23147;DHT22;11742;53.532;-1.478;2023-01-09T12:22:26;10.90;92.80
23147;DHT22;11742;53.532;-1.478;2023-01-09T12:28:11;10.90;92.80
23147;DHT22;11742;53.532;-1.478;2023-01-09T12:30:57;11.00;92.90
23147;DHT22;11742;53.532;-1.478;2023-01-09T12:33:44;11.00;92.90
23147;DHT22;11742;53.532;-1.478;2023-01-09T12:39:16;11.10;92.50
23147;DHT22;11742;53.532;-1.478;2023-01-09T12:50:20;11.10;92.70
23147;DHT22;11742;53.532;-1.478;2023-01-09T12:55:31;11.20;92.70
23147;DHT22;11742;53.532;-1.478;2023-01-09T12:58:00;11.20;92.40
23147;DHT22;11742;53.532;-1.478;2023-01-09T13:00:46;11.30;92.10
23147;DHT22;11742;53.532;-1.478;2023-01-09T13:03:23;11.30;91.90
23147;DHT22;11742;53.532;-1.478;2023-01-09T13:05:52;11.30;92.00
23147;DHT22;11742;53.532;-1.478;2023-01-09T13:08:37;11.40;92.00
23147;DHT22;11742;53.532;-1.478;2023-01-09T13:11:23;11.40;92.00
23147;DHT22;11742;53.532;-1.478;2023-01-09T13:16:52;11.40;91.90
23147;DHT22;11742;53.532;-1.478;2023-01-09T13:19:34;11.40;91.80
23147;DHT22;11742;53.532;-1.478;2023-01-09T13:22:03;11.50;91.80
23147;DHT22;11742;53.532;-1.478;2023-01-09T13:27:08;11.50;91.70
23147;DHT22;11742;53.532;-1.478;2023-01-09T13:29:38;11.50;91.70
23147;DHT22;11742;53.532;-1.478;2023-01-09T13:35:13;11.60;91.70
23147;DHT22;11742;53.532;-1.478;2023-01-09T13:37:40;11.60;91.70
23147;DHT22;11742;53.532;-1.478;2023-01-09T13:43:06;11.70;91.60
23147;DHT22;11742;53.532;-1.478;2023-01-09T13:45:36;11.70;91.60
23147;DHT22;11742;53.532;-1.478;2023-01-09T13:50:43;11.70;91.30
23147;DHT22;11742;53.532;-1.478;2023-01-09T13:59:24;11.80;91.00
23147;DHT22;11742;53.532;-1.478;2023-01-09T14:06:34;11.70;90.80
23147;DHT22;11742;53.532;-1.478;2023-01-09T14:09:18;11.80;90.60
23147;DHT22;11742;53.532;-1.478;2023-01-09T14:11:45;11.80;90.50
23147;DHT22;11742;53.532;-1.478;2023-01-09T14:14:28;11.70;90.40
23147;DHT22;11742;53.532;-1.478;2023-01-09T14:16:56;11.80;90.40
23147;DHT22;11742;53.532;-1.478;2023-01-09T14:19:36;11.80;90.40
23147;DHT22;11742;53.532;-1.478;2023-01-09T14:22:04;11.70;90.30
23147;DHT22;11742;53.532;-1.478;2023-01-09T14:24:43;11.70;90.20
23147;DHT22;11742;53.532;-1.478;2023-01-09T14:31:00;11.70;90.30
23147;DHT22;11742;53.532;-1.478;2023-01-09T14:33:26;11.70;90.30
23147;DHT22;11742;53.532;-1.478;2023-01-09T14:36:11;11.70;90.30
23147;DHT22;11742;53.532;-1.478;2023-01-09T14:38:53;11.70;90.40
23147;DHT22;11742;53.532;-1.478;2023-01-09T14:44:29;11.70;90.40
23147;DHT22;11742;53.532;-1.478;2023-01-09T14:47:53;11.70;90.50
23147;DHT22;11742;53.532;-1.478;2023-01-09T14:50:01;11.70;90.40
23147;DHT22;11742;53.532;-1.478;2023-01-09T14:52:36;11.70;90.20
23147;DHT22;11742;53.532;-1.478;2023-01-09T14:55:11;11.70;90.20
23147;DHT22;11742;53.532;-1.478;2023-01-09T14:57:40;11.70;90.10
23147;DHT22;11742;53.532;-1.478;2023-01-09T15:02:35;11.60;90.10
23147;DHT22;11742;53.532;-1.478;2023-01-09T15:05:07;11.70;90.10
23147;DHT22;11742;53.532;-1.478;2023-01-09T15:07:44;11.70;90.10
23147;DHT22;11742;53.532;-1.478;2023-01-09T15:10:24;11.70;90.00
23147;DHT22;11742;53.532;-1.478;2023-01-09T15:12:52;11.60;90.00
23147;DHT22;11742;53.532;-1.478;2023-01-09T15:15:20;11.60;90.00
23147;DHT22;11742;53.532;-1.478;2023-01-09T15:18:02;11.50;87.10
23147;DHT22;11742;53.532;-1.478;2023-01-09T15:20:31;11.30;89.00
23147;DHT22;11742;53.532;-1.478;2023-01-09T15:22:58;11.10;90.20
23147;DHT22;11742;53.532;-1.478;2023-01-09T15:25:35;11.10;90.60
23147;DHT22;11742;53.532;-1.478;2023-01-09T15:28:21;11.00;90.70
23147;DHT22;11742;53.532;-1.478;2023-01-09T15:30:56;11.10;90.90
23147;DHT22;11742;53.532;-1.478;2023-01-09T15:33:22;11.10;90.90
23147;DHT22;11742;53.532;-1.478;2023-01-09T15:35:50;11.00;90.90
23147;DHT22;11742;53.532;-1.478;2023-01-09T15:38:24;11.10;91.00
23147;DHT22;11742;53.532;-1.478;2023-01-09T15:41:14;11.10;91.00
23147;DHT22;11742;53.532;-1.478;2023-01-09T15:43:41;11.10;90.90
23147;DHT22;11742;53.532;-1.478;2023-01-09T15:46:11;11.10;90.90
23147;DHT22;11742;53.532;-1.478;2023-01-09T15:48:39;11.10;90.90
23147;DHT22;11742;53.532;-1.478;2023-01-09T15:51:08;11.10;90.80
23147;DHT22;11742;53.532;-1.478;2023-01-09T15:53:47;11.10;90.90
23147;DHT22;11742;53.532;-1.478;2023-01-09T15:56:20;11.10;90.80
23147;DHT22;11742;53.532;-1.478;2023-01-09T15:58:52;11.10;90.80
23147;DHT22;11742;53.532;-1.478;2023-01-09T16:01:38;11.10;90.70
23147;DHT22;11742;53.532;-1.478;2023-01-09T16:06:35;11.10;90.70
23147;DHT22;11742;53.532;-1.478;2023-01-09T16:09:02;11.10;90.60
23147;DHT22;11742;53.532;-1.478;2023-01-09T16:11:33;11.10;90.60
23147;DHT22;11742;53.532;-1.478;2023-01-09T16:17:01;11.10;90.60
23147;DHT22;11742;53.532;-1.478;2023-01-09T16:22:00;11.10;90.70
23147;DHT22;11742;53.532;-1.478;2023-01-09T16:24:37;11.10;90.70
23147;DHT22;11742;53.532;-1.478;2023-01-09T16:27:26;11.10;90.70
23147;DHT22;11742;53.532;-1.478;2023-01-09T16:30:02;11.10;89.80
23147;DHT22;11742;53.532;-1.478;2023-01-09T16:32:31;11.00;90.10
23147;DHT22;11742;53.532;-1.478;2023-01-09T16:35:14;10.70;90.80
23147;DHT22;11742;53.532;-1.478;2023-01-09T16:37:40;10.60;91.20
23147;DHT22;11742;53.532;-1.478;2023-01-09T16:42:42;10.50;91.40
23147;DHT22;11742;53.532;-1.478;2023-01-09T16:45:31;10.60;91.40
23147;DHT22;11742;53.532;-1.478;2023-01-09T16:47:58;10.60;91.40
23147;DHT22;11742;53.532;-1.478;2023-01-09T16:50:24;10.60;91.40
23147;DHT22;11742;53.532;-1.478;2023-01-09T16:52:50;10.60;91.30
23147;DHT22;11742;53.532;-1.478;2023-01-09T16:55:16;10.60;91.30
23147;DHT22;11742;53.532;-1.478;2023-01-09T16:57:42;10.60;91.30
23147;DHT22;11742;53.532;-1.478;2023-01-09T17:00:19;10.60;91.30
23147;DHT22;11742;53.532;-1.478;2023-01-09T17:02:45;10.70;91.30
23147;DHT22;11742;53.532;-1.478;2023-01-09T17:05:11;10.70;91.30
23147;DHT22;11742;53.532;-1.478;2023-01-09T17:07:36;10.60;91.30
23147;DHT22;11742;53.532;-1.478;2023-01-09T17:10:04;10.70;91.30
23147;DHT22;11742;53.532;-1.478;2023-01-09T17:12:30;10.70;91.30
23147;DHT22;11742;53.532;-1.478;2023-01-09T17:14:55;10.70;91.30
23147;DHT22;11742;53.532;-1.478;2023-01-09T17:17:21;10.70;91.30
23147;DHT22;11742;53.532;-1.478;2023-01-09T17:19:47;10.70;91.30
23147;DHT22;11742;53.532;-1.478;2023-01-09T17:22:13;10.70;91.40
23147;DHT22;11742;53.532;-1.478;2023-01-09T17:24:39;10.70;91.40
23147;DHT22;11742;53.532;-1.478;2023-01-09T17:27:31;10.70;91.40
23147;DHT22;11742;53.532;-1.478;2023-01-09T17:30:16;10.70;91.40
23147;DHT22;11742;53.532;-1.478;2023-01-09T17:32:42;10.70;91.40
23147;DHT22;11742;53.532;-1.478;2023-01-09T17:35:11;10.70;91.40
23147;DHT22;11742;53.532;-1.478;2023-01-09T17:37:37;10.70;91.40
23147;DHT22;11742;53.532;-1.478;2023-01-09T17:40:10;10.70;91.50
23147;DHT22;11742;53.532;-1.478;2023-01-09T17:42:39;10.60;91.40
23147;DHT22;11742;53.532;-1.478;2023-01-09T17:45:05;10.70;91.50
23147;DHT22;11742;53.532;-1.478;2023-01-09T17:47:31;10.70;91.50
23147;DHT22;11742;53.532;-1.478;2023-01-09T17:49:58;10.70;91.50
23147;DHT22;11742;53.532;-1.478;2023-01-09T17:52:23;10.70;91.50